createdAt,value
2019-02-22T17:32:37.678Z,56.8
2019-02-22T17:33:48.079Z,56.7
2019-02-22T17:34:58.014Z,56.32
2019-02-22T17:36:08.146Z,56.23
2019-02-22T17:37:29.540Z,56.23
2019-02-22T17:38:40.263Z,56.13
2019-02-22T17:39:50.806Z,55.76
2019-02-22T17:41:01.340Z,55.76
2019-02-22T17:42:11.527Z,55.47
2019-02-22T17:43:21.725Z,55.94
2019-02-22T17:44:31.890Z,54.61
2019-02-22T17:45:42.035Z,54.8
2019-02-22T17:46:59.986Z,54.52
2019-02-22T17:48:12.066Z,54.71
2019-02-22T17:49:22.222Z,54.71
2019-02-22T17:50:32.405Z,54.61
2019-02-22T17:51:42.540Z,54.61
2019-02-22T17:52:52.715Z,54.61
2019-02-22T17:54:02.884Z,54.33
2019-02-22T17:55:13.018Z,54.24
2019-02-22T17:56:23.168Z,54.43
2019-02-22T17:57:33.467Z,54.24
2019-02-22T17:58:43.585Z,54.61
2019-02-22T17:59:53.742Z,54.33
2019-02-22T18:01:04.132Z,54.43
2019-02-22T18:02:14.319Z,54.52
2019-02-22T18:03:24.498Z,54.52
2019-02-22T18:04:34.684Z,54.61
2019-02-22T18:05:44.840Z,54.14
2019-02-22T18:06:55.316Z,53.95
2019-02-22T18:08:05.469Z,54.24
2019-02-22T18:09:15.694Z,54.3
2019-02-22T18:10:25.962Z,53.83
2019-02-22T18:11:36.127Z,53.83
2019-02-22T18:12:46.425Z,54.21
2019-02-22T18:13:56.574Z,53.83
2019-02-22T18:15:06.737Z,53.83
2019-02-22T18:16:16.888Z,53.92
2019-02-22T18:17:27.076Z,54.39
2019-02-22T18:18:37.249Z,53.83
2019-02-22T18:19:47.432Z,54.02
2019-02-22T18:20:57.624Z,54.02
2019-02-22T18:22:07.855Z,54.27
2019-02-22T18:23:28.388Z,54.18
2019-02-22T18:24:38.574Z,54.27
2019-02-22T18:25:48.746Z,54.18
2019-02-22T18:26:58.882Z,53.99
2019-02-22T18:28:09.030Z,54.56
2019-02-22T18:29:19.207Z,54.66
2019-02-22T18:30:40.435Z,54.75
2019-02-22T18:31:50.349Z,54.85
2019-02-22T18:33:00.495Z,55.51
2019-02-22T18:34:10.386Z,55.41
2019-02-22T18:35:20.543Z,55.41
2019-02-22T18:36:30.671Z,55.32
2019-02-22T18:37:40.883Z,55.41
2019-02-22T18:38:51.140Z,55.6
2019-02-22T18:40:01.334Z,55.79
2019-02-22T18:41:11.536Z,55.98
2019-02-22T18:42:21.721Z,55.79
2019-02-22T18:43:31.894Z,56.34
2019-02-22T18:44:42.087Z,56.08
2019-02-22T18:45:52.258Z,56.65
2019-02-22T18:47:02.431Z,56.71
2019-02-22T18:48:24.163Z,56.34
2019-02-22T18:49:34.562Z,56.9
2019-02-22T18:50:44.742Z,57.57
2019-02-22T18:51:54.905Z,57.95
2019-02-22T18:53:05.071Z,58.51
2019-02-22T18:54:15.243Z,58.51
2019-02-22T18:55:25.401Z,58.99
2019-02-22T18:56:35.589Z,58.61
2019-02-22T18:57:45.763Z,59.27
2019-02-22T18:58:55.948Z,59.27
2019-02-22T19:00:07.701Z,59.46
2019-02-22T19:01:18.009Z,59.56
2019-02-22T19:02:28.217Z,60.13
2019-02-22T19:03:38.389Z,59.66
2019-02-22T19:04:48.575Z,59.94
2019-02-22T19:05:58.499Z,60.13
2019-02-22T19:07:08.702Z,60.31
2019-02-22T19:08:18.922Z,60.22
2019-02-22T19:09:40.759Z,60.41
2019-02-22T19:10:50.714Z,60.7
2019-02-22T19:12:00.894Z,60.89
2019-02-22T19:13:11.071Z,60.6
2019-02-22T19:14:21.259Z,61.08
2019-02-22T19:15:31.154Z,60.98
2019-02-22T19:16:41.336Z,61.65
2019-02-22T19:17:51.513Z,61.74
2019-02-22T19:19:01.691Z,62.02
2019-02-22T19:20:11.891Z,61.83
2019-02-22T19:21:22.132Z,61.55
2019-02-22T19:22:32.336Z,62.21
2019-02-22T19:23:42.540Z,62.4
2019-02-22T19:24:54.872Z,62.4
2019-02-22T19:26:05.067Z,62.31
2019-02-22T19:27:15.258Z,63.17
2019-02-22T19:28:25.429Z,62.78
2019-02-22T19:29:35.657Z,63.17
2019-02-22T19:30:45.834Z,63.64
2019-02-22T19:31:56.017Z,63.45
2019-02-22T19:33:06.213Z,63.54
2019-02-22T19:34:16.413Z,63.73
2019-02-22T19:35:26.629Z,64.4
2019-02-22T19:36:36.838Z,64.49
2019-02-22T19:37:47.216Z,64.87
2019-02-22T19:38:57.450Z,65.16
2019-02-22T19:40:07.643Z,65.25
2019-02-22T19:41:17.853Z,65.25
2019-02-22T19:42:28.044Z,65.72
2019-02-22T19:43:38.273Z,66.01
2019-02-22T19:44:48.476Z,66.67
2019-02-22T19:45:58.704Z,66.77
2019-02-22T19:47:08.899Z,67.14
2019-02-22T19:48:19.079Z,66.77
2019-02-22T19:49:29.297Z,67.05
2019-02-22T19:50:44.024Z,67.24
2019-02-22T19:51:54.274Z,66.86
2019-02-22T19:53:04.444Z,67.05
2019-02-22T19:54:14.669Z,67.33
2019-02-22T19:55:24.893Z,67.33
2019-02-22T19:56:35.126Z,67.33
2019-02-22T19:57:45.410Z,67.05
2019-02-22T19:58:55.986Z,66.96
2019-02-22T20:00:06.211Z,66.96
2019-02-22T20:01:16.437Z,66.96
2019-02-22T20:02:26.291Z,67.24
2019-02-22T20:03:36.485Z,66.67
2019-02-22T20:04:47.042Z,66.58
2019-02-22T20:05:58.874Z,66.54
2019-02-22T20:07:09.133Z,66.54
2019-02-22T20:08:19.324Z,66.45
2019-02-22T20:09:29.560Z,66.64
2019-02-22T20:10:39.793Z,66.45
2019-02-22T20:11:51.254Z,66.54
2019-02-22T20:13:01.476Z,66.54
2019-02-22T20:14:11.690Z,66.26
2019-02-22T20:15:21.899Z,66.26
2019-02-22T20:16:32.127Z,66.64
2019-02-22T20:17:52.882Z,66.54
2019-02-22T20:19:03.570Z,66.26
2019-02-22T20:20:13.810Z,66.93
2019-02-22T20:21:24.003Z,67.02
2019-02-22T20:22:34.244Z,66.93
2019-02-22T20:23:44.472Z,67.02
2019-02-22T20:24:54.891Z,66.93
2019-02-22T20:26:04.865Z,66.93
2019-02-22T20:27:15.170Z,67.02
2019-02-22T20:28:27.250Z,66.93
2019-02-22T20:29:38.228Z,67.02
2019-02-22T20:30:48.457Z,66.93
2019-02-22T20:31:58.735Z,66.83
2019-02-22T20:33:08.958Z,66.35
2019-02-22T20:34:19.225Z,66.93
2019-02-22T20:35:29.434Z,67.21
2019-02-22T20:36:39.652Z,67.11
2019-02-22T20:37:55.732Z,67.02
2019-02-22T20:39:05.972Z,66.93
2019-02-22T20:40:16.193Z,67.02
2019-02-22T20:41:26.454Z,67.02
2019-02-22T20:42:37.435Z,67.11
2019-02-22T20:43:47.668Z,66.74
2019-02-22T20:44:57.858Z,67.11
2019-02-22T20:46:07.778Z,66.83
2019-02-22T20:47:17.711Z,67.02
2019-02-22T20:48:27.906Z,67.3
2019-02-22T20:49:38.174Z,66.64
2019-02-22T20:50:48.374Z,67.21
2019-02-22T20:51:58.340Z,67.21
2019-02-22T20:53:08.665Z,66.93
2019-02-22T20:54:18.920Z,66.54
2019-02-22T20:55:29.147Z,66.54
2019-02-22T20:56:39.344Z,66.41
2019-02-22T20:57:49.541Z,66.41
2019-02-22T20:58:59.711Z,66.41
2019-02-22T21:00:10.032Z,66.41
2019-02-22T21:01:20.310Z,65.94
2019-02-22T21:02:30.575Z,65.84
2019-02-22T21:03:40.800Z,66.13
2019-02-22T21:04:51.044Z,65.94
2019-02-22T21:06:00.965Z,66.13
2019-02-22T21:07:11.190Z,66.41
2019-02-22T21:08:21.164Z,66.22
2019-02-22T21:09:32.637Z,65.94
2019-02-22T21:10:42.862Z,66.13
2019-02-22T21:11:53.086Z,65.66
2019-02-22T21:13:03.249Z,65.75
2019-02-22T21:14:13.471Z,65.94
2019-02-22T21:15:23.672Z,66.03
2019-02-22T21:16:33.903Z,66.03
2019-02-22T21:17:44.142Z,65.84
2019-02-22T21:18:54.323Z,65.66
2019-02-22T21:20:04.560Z,66.13
2019-02-22T21:21:14.786Z,66.13
2019-02-22T21:22:25.011Z,66.13
2019-02-22T21:23:35.190Z,65.94
2019-02-22T21:24:45.364Z,65.94
2019-02-22T21:25:55.880Z,65.94
2019-02-22T21:27:06.062Z,66.13
2019-02-22T21:28:16.266Z,66.03
2019-02-22T21:29:26.513Z,66.13
2019-02-22T21:30:36.752Z,66.51
2019-02-22T21:31:47.062Z,66.41
2019-02-22T21:32:57.266Z,66.41
2019-02-22T21:34:07.472Z,66.51
2019-02-22T21:35:17.660Z,66.6
2019-02-22T21:36:27.986Z,66.6
2019-02-22T21:37:38.226Z,66.41
2019-02-22T21:38:48.408Z,66.6
2019-02-22T21:39:58.753Z,66.6
2019-02-22T21:41:09.024Z,66.13
2019-02-22T21:42:23.007Z,66.41
2019-02-22T21:43:33.195Z,66.6
2019-02-22T21:44:43.383Z,66.03
2019-02-22T21:45:53.588Z,66.03
2019-02-22T21:47:03.835Z,65.84
2019-02-22T21:48:14.036Z,65.66
2019-02-22T21:49:34.923Z,65.66
2019-02-22T21:50:45.132Z,65.94
2019-02-22T21:51:55.306Z,65.56
2019-02-22T21:53:05.480Z,65.94
2019-02-22T21:54:15.713Z,65.56
2019-02-22T21:55:25.923Z,65.47
2019-02-22T21:56:36.113Z,65.66
2019-02-22T21:57:46.450Z,65.66
2019-02-22T21:58:56.621Z,65.66
2019-02-22T22:00:06.827Z,65.28
2019-02-22T22:01:17.013Z,65
2019-02-22T22:02:27.194Z,64.9
2019-02-22T22:03:37.437Z,65.19
2019-02-22T22:04:47.646Z,65.19
2019-02-22T22:05:57.845Z,65.25
2019-02-22T22:07:08.069Z,65.28
2019-02-22T22:08:18.236Z,64.96
2019-02-22T22:09:28.445Z,65.09
2019-02-22T22:10:38.626Z,64.58
2019-02-22T22:11:48.796Z,65
2019-02-22T22:12:58.985Z,65.06
2019-02-22T22:14:09.183Z,65.34
2019-02-22T22:15:19.368Z,65.34
2019-02-22T22:16:29.529Z,64.87
2019-02-22T22:17:39.764Z,65.19
2019-02-22T22:18:49.692Z,64.33
2019-02-22T22:19:59.893Z,65.15
2019-02-22T22:21:10.039Z,65.09
2019-02-22T22:22:20.223Z,65
2019-02-22T22:23:30.404Z,64.9
2019-02-22T22:24:40.582Z,64.81
2019-02-22T22:25:50.783Z,64.42
2019-02-22T22:27:01.033Z,64.61
2019-02-22T22:28:11.216Z,64.33
2019-02-22T22:29:21.379Z,64.23
2019-02-22T22:30:31.523Z,64.14
2019-02-22T22:31:41.697Z,64.52
2019-02-22T22:32:52.715Z,64.42
2019-02-22T22:34:02.963Z,64.42
2019-02-22T22:35:13.135Z,64.33
2019-02-22T22:36:23.313Z,64.04
2019-02-22T22:37:33.535Z,64.14
2019-02-22T22:38:43.693Z,64.33
2019-02-22T22:39:53.853Z,63.85
2019-02-22T22:41:04.001Z,64.04
2019-02-22T22:42:14.147Z,63.85
2019-02-22T22:43:24.378Z,63.64
2019-02-22T22:44:34.572Z,64.01
2019-02-22T22:45:44.713Z,63.67
2019-02-22T22:46:54.899Z,63.45
2019-02-22T22:48:05.038Z,63.54
2019-02-22T22:49:15.261Z,63.73
2019-02-22T22:50:25.408Z,63.64
2019-02-22T22:51:35.535Z,63.82
2019-02-22T22:52:45.661Z,63.92
2019-02-22T22:53:55.864Z,63.92
2019-02-22T22:55:06.133Z,63.73
2019-02-22T22:56:16.319Z,64.01
2019-02-22T22:57:26.493Z,63.64
2019-02-22T22:58:36.840Z,63.82
2019-02-22T22:59:46.987Z,64.3
2019-02-22T23:00:57.121Z,64.01
2019-02-22T23:02:07.287Z,64.2
2019-02-22T23:03:17.165Z,64.01
2019-02-22T23:04:27.293Z,64.01
2019-02-22T23:05:37.452Z,64.2
2019-02-22T23:06:47.601Z,63.82
2019-02-22T23:07:57.747Z,63.64
2019-02-22T23:09:07.905Z,63.82
2019-02-22T23:10:18.095Z,63.35
2019-02-22T23:11:28.281Z,63.26
2019-02-22T23:12:38.425Z,63.54
2019-02-22T23:13:49.715Z,63.35
2019-02-22T23:14:59.878Z,63.45
2019-02-22T23:16:09.650Z,63.45
2019-02-22T23:17:19.808Z,63.35
2019-02-22T23:18:29.935Z,63.45
2019-02-22T23:19:40.113Z,63.16
2019-02-22T23:20:50.255Z,63.26
2019-02-22T23:22:00.369Z,63.26
2019-02-22T23:23:10.496Z,63.35
2019-02-22T23:24:20.652Z,63.35
2019-02-22T23:25:30.798Z,63.07
2019-02-22T23:26:41.004Z,63.07
2019-02-22T23:27:51.161Z,63.26
2019-02-22T23:29:01.901Z,63.64
2019-02-22T23:30:12.198Z,63.82
2019-02-22T23:31:22.329Z,63.92
2019-02-22T23:32:32.493Z,64.11
2019-02-22T23:33:42.641Z,63.89
2019-02-22T23:34:52.796Z,64.01
2019-02-22T23:36:02.933Z,64.3
2019-02-22T23:37:13.065Z,64.17
2019-02-22T23:38:23.275Z,64.17
2019-02-22T23:39:33.428Z,63.98
2019-02-22T23:40:43.546Z,64.74
2019-02-22T23:41:53.683Z,64.45
2019-02-22T23:43:03.547Z,64.26
2019-02-22T23:44:13.426Z,64.36
2019-02-22T23:45:23.564Z,64.36
2019-02-22T23:46:33.678Z,64.83
2019-02-22T23:47:43.797Z,64.55
2019-02-22T23:48:53.913Z,64.74
2019-02-22T23:50:04.017Z,64.83
2019-02-22T23:51:14.187Z,65.21
2019-02-22T23:52:24.293Z,64.93
2019-02-22T23:53:36.878Z,64.93
2019-02-22T23:54:47.008Z,65.02
2019-02-22T23:55:57.133Z,64.83
2019-02-22T23:57:07.262Z,65.12
2019-02-22T23:58:17.397Z,65.02
2019-02-22T23:59:27.523Z,64.93
